Terminal Aerodrome Forecast
Issued by NWS

Home | Current Version | Previous Version | Text Only | Print | Product List | Glossary On
Versions: 1 2 3 4 5 6 7 8 9 10 11 12 13
000
FTUS45 KREV 272329
TAFTVL
TAF
KTVL 272329Z 2800/2824 21010KT P6SM SCT060
     FM280200 VRB03KT P6SM FEW080
     FM282000 05007KT P6SM BKN060=

USA.gov is the U.S. government's official web portal to all federal, state and local government web resources and services.